Time;durP1;ratioP1;P1;durP2;ratioP2;P2;SDS_P1;SDS_P2;PMS_P1;PMS_P2;Temp;Humidity;BMP_temperature;BMP_pressure;BME280_temperature;BME280_humidity;BME280_pressure;Samples;Min_cycle;Max_cycle;Signal;HPM_P1;HPM_P2
2023/07/09 00:02:17;;;;;;;0.90;0.13;;;;;;;28.11;100.00;99893.41;7393434;19;20047;-78
2023/07/09 00:04:43;;;;;;;0.25;0.20;;;;;;;27.91;100.00;99911.81;7391863;19;20339;-78
2023/07/09 00:07:17;;;;;;;0.73;0.08;;;;;;;27.82;100.00;99907.56;7391760;19;20392;-78
2023/07/09 00:09:44;;;;;;;1.05;0.10;;;;;;;27.57;100.00;99904.88;7393752;19;20022;-78
2023/07/09 00:12:19;;;;;;;0.55;0.20;;;;;;;27.35;100.00;99903.09;7396613;19;20014;-78
2023/07/09 00:14:45;;;;;;;0.20;0.10;;;;;;;26.85;100.00;99896.81;7391654;19;20561;-78
2023/07/09 00:17:27;;;;;;;0.45;0.10;;;;;;;26.60;100.00;99890.34;7391988;19;20018;-78
2023/07/09 00:19:54;;;;;;;1.30;0.40;;;;;;;26.84;100.00;99903.84;7393613;19;20421;-78
2023/07/09 00:22:20;;;;;;;0.10;0.10;;;;;;;26.80;100.00;99914.94;7392569;19;20014;-78
2023/07/09 00:24:50;;;;;;;2.63;0.38;;;;;;;26.38;100.00;99916.28;7395815;19;20043;-78
2023/07/09 00:27:19;;;;;;;2.75;0.43;;;;;;;25.86;100.00;99910.38;7391160;19;20022;-78
2023/07/09 00:29:45;;;;;;;0.77;0.52;;;;;;;25.45;100.00;99914.59;7391969;19;20010;-78
2023/07/09 00:32:17;;;;;;;1.30;0.73;;;;;;;25.36;100.00;99906.63;7392259;19;20081;-77
2023/07/09 00:34:48;;;;;;;2.78;0.35;;;;;;;25.27;100.00;99910.13;7390487;19;20010;-78
2023/07/09 00:37:25;;;;;;;0.40;0.30;;;;;;;25.16;100.00;99916.25;7390479;19;20017;-77
2023/07/09 00:39:52;;;;;;;0.20;0.10;;;;;;;25.13;100.00;99917.38;7392763;19;20096;-78
2023/07/09 00:42:20;;;;;;;9.05;0.30;;;;;;;25.10;100.00;99912.81;7392772;19;20018;-78
2023/07/09 00:44:51;;;;;;;0.55;0.20;;;;;;;24.99;100.00;99906.78;7390790;19;20011;-78
2023/07/09 00:47:47;;;;;;;0.20;0.10;;;;;;;25.01;100.00;99895.56;7392069;19;20120;-78
2023/07/09 00:50:31;;;;;;;9.23;1.23;;;;;;;24.81;100.00;99894.50;7389946;19;20031;-77
2023/07/09 00:53:23;;;;;;;1.65;0.50;;;;;;;24.78;100.00;99895.63;7391987;19;20018;-78
2023/07/09 00:55:58;;;;;;;1.13;0.10;;;;;;;25.12;100.00;99900.88;7390862;19;20049;-78
2023/07/09 00:58:27;;;;;;;0.20;0.10;;;;;;;25.13;100.00;99888.88;7392138;19;20011;-78
2023/07/09 01:01:00;;;;;;;3.92;0.30;;;;;;;24.96;100.00;99885.91;7391608;19;20022;-77
2023/07/09 01:03:36;;;;;;;0.40;0.15;;;;;;;25.10;100.00;99898.56;7390931;19;20024;-78
2023/07/09 01:06:05;;;;;;;3.20;0.50;;;;;;;25.20;100.00;99905.19;7390710;19;20010;-78
2023/07/09 01:08:33;;;;;;;1.75;0.25;;;;;;;24.91;100.00;99906.81;7391982;19;20014;-78
2023/07/09 01:10:59;;;;;;;1.15;0.25;;;;;;;25.31;100.00;99913.31;7390006;19;20408;-78
2023/07/09 01:13:27;;;;;;;5.65;0.55;;;;;;;24.99;100.00;99903.94;7393395;19;20674;-77
2023/07/09 01:15:55;;;;;;;4.65;0.82;;;;;;;24.67;100.00;99910.25;7389697;19;20106;-78
2023/07/09 01:18:23;;;;;;;4.00;1.13;;;;;;;24.34;100.00;99922.84;7391137;19;20014;-78
2023/07/09 01:20:55;;;;;;;2.30;1.05;;;;;;;24.87;100.00;99915.00;7392097;19;20055;-77
2023/07/09 01:23:22;;;;;;;1.98;0.85;;;;;;;24.48;100.00;99901.34;7390320;19;20510;-78
2023/07/09 01:25:54;;;;;;;1.05;0.30;;;;;;;24.35;100.00;99902.31;7390235;19;20014;-78
2023/07/09 01:28:21;;;;;;;2.55;0.47;;;;;;;24.79;100.00;99900.78;7388470;19;20631;-78
2023/07/09 01:30:53;;;;;;;2.20;0.68;;;;;;;24.36;100.00;99894.56;7390282;19;20043;-78
2023/07/09 01:33:22;;;;;;;2.53;0.17;;;;;;;23.43;100.00;99899.94;7389860;19;20037;-77
2023/07/09 01:35:49;;;;;;;0.63;0.30;;;;;;;23.72;100.00;99898.47;7389534;19;20010;-78
2023/07/09 01:38:16;;;;;;;2.28;1.02;;;;;;;26.25;100.00;99885.91;7389720;19;20342;-77
2023/07/09 01:40:42;;;;;;;1.92;0.70;;;;;;;24.09;100.00;99886.41;7390937;19;20026;-78
2023/07/09 01:43:08;;;;;;;0.65;0.63;;;;;;;29.05;100.00;99899.91;7389511;19;20015;-78
2023/07/09 01:45:36;;;;;;;1.10;0.55;;;;;;;28.97;100.00;99911.56;7388465;19;20521;-78
2023/07/09 01:48:02;;;;;;;0.98;0.30;;;;;;;28.92;100.00;99908.97;7387812;19;20376;-77
2023/07/09 01:50:29;;;;;;;0.95;0.65;;;;;;;27.55;100.00;99901.06;7389433;19;20018;-78
2023/07/09 01:52:57;;;;;;;2.15;0.60;;;;;;;28.17;100.00;99903.22;7388361;19;20031;-78
2023/07/09 01:55:23;;;;;;;1.05;0.65;;;;;;;28.34;100.00;99911.72;7388261;19;20019;-78
2023/07/09 01:57:52;;;;;;;2.50;0.63;;;;;;;28.15;100.00;99914.53;7389055;19;20015;-78
2023/07/09 02:00:18;;;;;;;2.60;0.82;;;;;;;28.29;100.00;99909.13;7392547;19;20022;-78
2023/07/09 02:02:47;;;;;;;3.10;1.50;;;;;;;28.12;100.00;99907.13;7389912;19;20023;-78
2023/07/09 02:05:18;;;;;;;1.25;0.88;;;;;;;28.56;100.00;99912.69;7387954;19;20043;-78
2023/07/09 02:07:46;;;;;;;3.20;0.43;;;;;;;29.94;95.47;99913.72;7384933;19;20039;-78
2023/07/09 02:10:14;;;;;;;0.40;0.40;;;;;;;29.70;95.20;99914.81;7393555;19;20025;-78
2023/07/09 02:12:40;;;;;;;1.63;0.85;;;;;;;31.60;85.22;99916.41;7387988;19;20060;-78
2023/07/09 02:15:07;;;;;;;3.80;1.35;;;;;;;31.75;83.17;99915.94;7387671;19;20021;-78
2023/07/09 02:17:33;;;;;;;2.30;0.68;;;;;;;32.83;77.33;99919.09;7387580;19;20553;-78
2023/07/09 02:19:59;;;;;;;8.70;1.13;;;;;;;33.34;73.03;99908.38;7386400;19;20118;-78
2023/07/09 02:22:25;;;;;;;2.53;0.85;;;;;;;33.50;70.96;99909.31;7390811;19;20367;-77
2023/07/09 02:24:52;;;;;;;0.80;0.60;;;;;;;33.63;69.18;99911.53;7387328;19;20018;-77
2023/07/09 02:27:20;;;;;;;2.30;1.10;;;;;;;33.67;68.41;99914.63;7388287;19;20350;-78
2023/07/09 02:29:46;;;;;;;1.27;0.43;;;;;;;33.87;66.37;99912.88;7386635;19;20420;-78
2023/07/09 02:32:21;;;;;;;3.65;1.05;;;;;;;33.19;67.55;99920.50;7390348;19;20010;-78
2023/07/09 02:34:48;;;;;;;1.13;0.32;;;;;;;33.21;67.87;99923.50;7386545;19;20010;-78
2023/07/09 02:37:17;;;;;;;1.83;1.00;;;;;;;33.42;66.51;99920.38;7389457;19;20097;-78
2023/07/09 02:39:44;;;;;;;4.57;1.13;;;;;;;33.53;65.10;99916.72;7387026;19;20029;-77
2023/07/09 02:42:12;;;;;;;1.30;0.40;;;;;;;33.10;66.23;99924.28;7395222;19;20022;-77
2023/07/09 02:44:40;;;;;;;6.90;1.85;;;;;;;32.83;66.94;99919.81;7397066;19;20014;-78
2023/07/09 02:47:08;;;;;;;6.30;0.65;;;;;;;33.02;65.59;99929.59;7392757;19;20015;-77
2023/07/09 02:49:35;;;;;;;2.20;0.30;;;;;;;33.24;65.37;99922.25;7394088;19;20018;-77
2023/07/09 02:52:01;;;;;;;2.67;0.95;;;;;;;33.13;64.62;99923.03;7394367;19;20102;-78
2023/07/09 02:54:27;;;;;;;5.30;1.65;;;;;;;36.09;57.70;99925.03;7393506;19;20010;-78
2023/07/09 02:56:54;;;;;;;3.20;0.55;;;;;;;34.43;58.79;99926.03;7396666;19;20014;-78
2023/07/09 02:59:20;;;;;;;3.28;0.60;;;;;;;34.12;59.65;99927.28;7393506;19;20039;-78
2023/07/09 03:01:47;;;;;;;1.95;0.45;;;;;;;33.60;60.79;99927.22;7393828;19;20533;-77
2023/07/09 03:04:14;;;;;;;1.13;0.73;;;;;;;33.54;60.80;99932.66;7392701;19;20031;-78
2023/07/09 03:06:40;;;;;;;4.20;0.75;;;;;;;33.47;60.65;99927.91;7392915;19;20023;-77
2023/07/09 03:09:06;;;;;;;1.92;1.02;;;;;;;33.31;61.29;99927.00;7396128;19;20039;-77
2023/07/09 03:11:34;;;;;;;5.50;0.93;;;;;;;33.25;61.27;99923.72;7395239;19;20017;-78
2023/07/09 03:14:02;;;;;;;4.07;0.70;;;;;;;33.22;61.23;99925.00;7397318;19;20006;-77
2023/07/09 03:16:31;;;;;;;4.63;1.35;;;;;;;33.09;61.29;99917.03;7394622;19;20022;-77
2023/07/09 03:18:57;;;;;;;2.70;1.02;;;;;;;33.25;59.96;99907.16;7395499;19;20022;-78
2023/07/09 03:21:25;;;;;;;1.67;0.80;;;;;;;33.14;60.41;99912.97;7394983;19;20014;-77
2023/07/09 03:23:54;;;;;;;1.80;0.57;;;;;;;33.13;60.16;99909.34;7394673;19;20014;-78
2023/07/09 03:26:20;;;;;;;8.80;1.45;;;;;;;33.15;59.56;99905.84;7392052;19;20487;-77
2023/07/09 03:28:46;;;;;;;10.93;1.73;;;;;;;33.02;59.73;99923.81;7394552;19;20006;-77
2023/07/09 03:31:13;;;;;;;5.65;1.10;;;;;;;32.95;59.64;99936.34;7393011;19;20031;-78
2023/07/09 03:33:39;;;;;;;4.60;1.63;;;;;;;32.97;59.58;99928.56;7392378;19;20031;-77
2023/07/09 03:36:06;;;;;;;2.58;0.65;;;;;;;32.90;59.37;99930.34;7393323;19;20025;-77
2023/07/09 03:38:32;;;;;;;1.95;0.50;;;;;;;32.65;59.56;99933.16;7393915;19;20022;-77
2023/07/09 03:40:58;;;;;;;9.32;1.10;;;;;;;32.52;59.79;99928.03;7393453;19;20705;-77
2023/07/09 03:43:24;;;;;;;4.07;0.60;;;;;;;32.41;59.99;99931.66;7393385;19;20006;-78
2023/07/09 03:45:51;;;;;;;3.45;1.30;;;;;;;32.35;59.94;99921.88;7393153;19;20022;-78
2023/07/09 03:48:19;;;;;;;14.75;2.47;;;;;;;32.21;60.66;99918.88;7393446;19;20043;-78
2023/07/09 03:50:46;;;;;;;2.42;0.68;;;;;;;32.17;60.30;99933.03;7393894;19;20015;-78
2023/07/09 03:53:13;;;;;;;0.80;0.52;;;;;;;32.10;60.20;99948.44;7392330;19;20025;-77
2023/07/09 03:55:40;;;;;;;1.95;0.32;;;;;;;32.02;60.43;99939.28;7392465;19;20022;-77
2023/07/09 03:58:07;;;;;;;5.90;1.08;;;;;;;32.13;60.44;99941.44;7394014;19;20018;-77
2023/07/09 04:00:33;;;;;;;9.07;1.30;;;;;;;32.03;60.14;99949.47;7393361;19;20021;-78
2023/07/09 04:03:00;;;;;;;4.43;1.60;;;;;;;32.07;60.10;99943.94;7393134;19;20014;-78
2023/07/09 04:05:27;;;;;;;3.33;1.38;;;;;;;32.01;60.12;99940.69;7391409;19;20027;-78
2023/07/09 04:07:54;;;;;;;12.82;1.70;;;;;;;32.05;60.11;99946.69;7392749;19;20018;-78
2023/07/09 04:10:21;;;;;;;9.18;1.23;;;;;;;32.09;59.84;99944.81;7391786;19;20020;-77
2023/07/09 04:12:47;;;;;;;3.05;0.45;;;;;;;32.37;58.97;99942.94;7393335;19;20007;-78
2023/07/09 04:15:13;;;;;;;2.72;1.05;;;;;;;32.18;59.22;99949.69;7388928;19;20024;-78
2023/07/09 04:17:40;;;;;;;8.20;1.35;;;;;;;32.05;59.46;99958.22;7391244;19;20014;-78
2023/07/09 04:20:09;;;;;;;3.92;0.80;;;;;;;32.06;59.53;99948.19;7393645;19;20018;-77
2023/07/09 04:22:36;;;;;;;2.15;1.00;;;;;;;31.96;59.58;99944.69;7391988;19;20084;-77
2023/07/09 04:25:06;;;;;;;5.68;0.73;;;;;;;31.97;59.65;99951.94;7391143;19;20006;-78
2023/07/09 04:27:33;;;;;;;12.45;1.92;;;;;;;32.01;59.47;99935.66;7390803;19;20070;-77
2023/07/09 04:29:59;;;;;;;2.00;1.02;;;;;;;31.96;59.38;99938.91;7391628;19;20351;-78
2023/07/09 04:32:26;;;;;;;2.28;1.02;;;;;;;31.94;59.80;99941.66;7391651;19;20023;-78
2023/07/09 04:34:53;;;;;;;1.27;0.57;;;;;;;32.05;59.74;99940.94;7390284;19;20491;-77
2023/07/09 04:37:19;;;;;;;16.15;1.92;;;;;;;32.03;59.58;99938.66;7391601;19;20047;-77
2023/07/09 04:39:47;;;;;;;5.78;1.27;;;;;;;31.93;59.70;99960.28;7389776;19;20017;-77
2023/07/09 04:42:16;;;;;;;3.78;0.55;;;;;;;31.84;59.81;99949.63;7390103;19;20031;-77
2023/07/09 04:44:44;;;;;;;8.23;0.68;;;;;;;31.97;60.19;99958.44;7390518;19;20019;-77
2023/07/09 04:47:12;;;;;;;2.22;0.30;;;;;;;31.92;60.21;99950.88;7389879;19;20019;-77
2023/07/09 04:49:38;;;;;;;2.15;0.75;;;;;;;31.89;59.70;99954.28;7394315;19;20042;-77
2023/07/09 04:52:05;;;;;;;7.93;1.45;;;;;;;31.85;60.19;99949.03;7392293;19;20022;-77
2023/07/09 04:54:32;;;;;;;1.45;0.85;;;;;;;31.85;59.86;99946.13;7390569;19;20026;-77
2023/07/09 04:56:58;;;;;;;13.75;1.42;;;;;;;32.00;59.55;99956.47;7391733;19;20460;-77
2023/07/09 04:59:25;;;;;;;3.10;0.82;;;;;;;32.05;59.64;99952.47;7393421;19;20021;-77
2023/07/09 05:01:51;;;;;;;1.42;0.77;;;;;;;32.11;59.52;99949.97;7392051;19;20022;-76
2023/07/09 05:04:17;;;;;;;3.60;1.52;;;;;;;32.14;59.63;99954.44;7386535;19;20026;-77
2023/07/09 05:06:43;;;;;;;5.57;0.98;;;;;;;32.24;59.06;99958.00;7388571;19;20481;-77
2023/07/09 05:09:09;;;;;;;7.88;1.52;;;;;;;32.20;58.88;99951.22;7392556;19;20133;-77
2023/07/09 05:11:36;;;;;;;4.07;1.02;;;;;;;32.18;59.22;99949.69;7391546;19;20048;-77
2023/07/09 05:14:03;;;;;;;0.40;0.30;;;;;;;32.06;59.40;99960.47;7394093;19;20086;-77
2023/07/09 05:16:30;;;;;;;1.80;0.75;;;;;;;32.55;58.05;99952.72;7390109;19;20484;-77
2023/07/09 05:18:56;;;;;;;2.45;0.77;;;;;;;32.50;58.47;99959.66;7389712;19;20018;-77
2023/07/09 05:21:22;;;;;;;3.90;0.65;;;;;;;32.59;58.18;99961.66;7389356;19;20018;-77
2023/07/09 05:23:48;;;;;;;1.08;0.43;;;;;;;32.61;57.94;99952.38;7391353;19;20726;-77
2023/07/09 05:26:14;;;;;;;0.95;0.20;;;;;;;32.39;58.67;99957.50;7390957;19;20018;-76
2023/07/09 05:28:40;;;;;;;1.40;0.77;;;;;;;32.44;58.47;99970.78;7391314;19;20446;-77
2023/07/09 05:31:07;;;;;;;1.17;0.22;;;;;;;32.58;58.13;99973.78;7390907;19;20494;-77
2023/07/09 05:33:33;;;;;;;1.90;0.88;;;;;;;32.51;58.58;99974.81;7391208;19;20469;-77
2023/07/09 05:35:59;;;;;;;4.60;0.45;;;;;;;32.56;59.07;99965.78;7390411;19;20023;-77
2023/07/09 05:38:25;;;;;;;11.60;1.45;;;;;;;32.76;58.51;99948.97;7389567;19;20339;-77
2023/07/09 05:41:03;;;;;;;0.95;0.40;;;;;;;32.80;59.13;99931.88;7390518;19;20018;-77
2023/07/09 05:43:30;;;;;;;3.53;1.05;;;;;;;33.17;58.78;99923.25;7391843;19;20025;-77
2023/07/09 05:45:57;;;;;;;1.05;0.47;;;;;;;33.10;58.76;99930.06;7388193;19;20381;-76
2023/07/09 05:48:23;;;;;;;1.48;0.68;;;;;;;33.07;59.36;99928.47;7387573;19;20011;-77
2023/07/09 05:50:54;;;;;;;2.00;1.02;;;;;;;33.05;59.87;99945.66;7389687;19;20372;-76
2023/07/09 05:53:21;;;;;;;3.65;0.85;;;;;;;33.01;60.34;99969.25;7390931;19;20019;-77
2023/07/09 05:55:48;;;;;;;2.20;0.85;;;;;;;32.86;60.48;99964.75;7389126;19;20026;-77
2023/07/09 05:58:14;;;;;;;1.08;0.32;;;;;;;33.00;60.32;99984.31;7389666;19;20410;-77
2023/07/09 06:00:41;;;;;;;1.98;0.95;;;;;;;33.02;60.47;99973.66;7393915;19;20022;-77
2023/07/09 06:03:07;;;;;;;6.10;1.35;;;;;;;33.07;60.61;99966.72;7389740;19;20022;-77
2023/07/09 06:05:34;;;;;;;2.83;0.70;;;;;;;33.36;59.66;99969.88;7388036;19;20025;-77
2023/07/09 06:08:00;;;;;;;1.25;0.10;;;;;;;33.51;59.49;99957.03;7387177;19;20497;-77
2023/07/09 06:10:26;;;;;;;3.45;0.98;;;;;;;34.00;59.05;99958.38;7392490;19;20014;-77
2023/07/09 06:12:53;;;;;;;3.38;0.43;;;;;;;33.40;60.24;99970.13;7389002;19;20025;-77
2023/07/09 06:15:19;;;;;;;4.78;0.40;;;;;;;33.36;60.67;99961.22;7391369;19;20497;-77
2023/07/09 06:17:45;;;;;;;0.95;0.40;;;;;;;33.72;60.02;99959.72;7397949;19;20022;-77
2023/07/09 06:20:11;;;;;;;2.53;0.55;;;;;;;36.79;53.75;99950.72;7395255;19;20026;-77
2023/07/09 06:22:38;;;;;;;3.08;0.85;;;;;;;37.72;50.55;99951.75;7400526;19;20082;-77
2023/07/09 06:25:04;;;;;;;1.83;1.05;;;;;;;37.32;50.02;99950.81;7394782;19;20007;-77
2023/07/09 06:27:30;;;;;;;1.20;0.73;;;;;;;35.16;53.85;99960.28;7394849;19;20022;-77
2023/07/09 06:29:56;;;;;;;1.40;0.38;;;;;;;33.41;57.06;99965.09;7395990;19;20010;-77
2023/07/09 06:32:22;;;;;;;1.15;0.25;;;;;;;32.92;58.96;99962.22;7396079;19;20014;-77
2023/07/09 06:34:49;;;;;;;1.30;0.35;;;;;;;32.95;60.12;99962.31;7397232;19;20015;-77
2023/07/09 06:37:15;;;;;;;2.13;0.40;;;;;;;33.43;58.46;99973.88;7395457;19;20022;-77
2023/07/09 06:39:41;;;;;;;1.33;0.30;;;;;;;35.33;56.02;99985.78;7395667;19;20028;-77
2023/07/09 06:42:07;;;;;;;1.35;0.32;;;;;;;36.74;51.71;99998.41;7395068;19;20078;-76
2023/07/09 06:44:50;;;;;;;2.95;0.82;;;;;;;36.45;52.04;99995.63;7396219;19;20058;-77
2023/07/09 06:47:16;;;;;;;3.45;0.68;;;;;;;37.21;49.73;99998.28;7393094;19;20034;-77
2023/07/09 06:49:42;;;;;;;0.80;0.20;;;;;;;35.01;54.44;99989.94;7393923;19;20007;-77
2023/07/09 06:52:08;;;;;;;5.18;0.50;;;;;;;34.74;55.26;100002.22;7395843;19;20081;-77
2023/07/09 06:54:35;;;;;;;0.43;0.30;;;;;;;36.31;52.78;99997.84;7393669;19;20023;-77
2023/07/09 06:57:01;;;;;;;0.40;0.17;;;;;;;37.84;48.64;99998.78;7398562;19;20050;-77
2023/07/09 06:59:27;;;;;;;2.20;0.38;;;;;;;36.52;49.14;100000.28;7393480;19;20015;-77
2023/07/09 07:01:53;;;;;;;9.88;0.40;;;;;;;37.02;48.74;99990.97;7395369;19;20025;-77
2023/07/09 07:04:19;;;;;;;4.15;0.50;;;;;;;37.73;47.68;99996.84;7394911;19;20025;-77
2023/07/09 07:06:45;;;;;;;0.75;0.20;;;;;;;38.25;46.51;99999.00;7393532;19;20092;-77
2023/07/09 07:09:11;;;;;;;5.88;0.30;;;;;;;36.10;49.91;99996.16;7399314;19;20500;-77
2023/07/09 07:11:37;;;;;;;3.35;0.75;;;;;;;35.78;50.76;100006.13;7394721;19;20026;-77
2023/07/09 07:14:03;;;;;;;0.55;0.22;;;;;;;37.99;47.21;100003.75;7396787;19;20019;-77
2023/07/09 07:16:30;;;;;;;0.43;0.35;;;;;;;36.08;49.93;100004.00;7395421;19;20022;-77
2023/07/09 07:18:56;;;;;;;2.13;0.32;;;;;;;36.73;49.18;100011.44;7397962;19;20020;-77
2023/07/09 07:21:22;;;;;;;0.32;0.28;;;;;;;37.13;48.23;100004.53;7394889;19;20022;-77
2023/07/09 07:23:48;;;;;;;1.23;0.30;;;;;;;36.98;47.83;99993.69;7392926;19;20018;-76
2023/07/09 07:26:14;;;;;;;3.15;0.82;;;;;;;36.63;48.88;99998.59;7391462;19;20015;-77
2023/07/09 07:28:40;;;;;;;0.77;0.28;;;;;;;36.26;49.34;99996.13;7397177;19;20474;-77
2023/07/09 07:31:08;;;;;;;1.98;0.40;;;;;;;35.03;51.04;99987.13;7394646;19;20029;-77
2023/07/09 07:33:35;;;;;;;0.68;0.30;;;;;;;32.99;56.43;99991.44;7394999;19;20025;-77
2023/07/09 07:36:06;;;;;;;3.50;0.77;;;;;;;31.78;60.91;99998.97;7393075;19;20438;-77
2023/07/09 07:38:32;;;;;;;4.47;0.45;;;;;;;32.59;61.04;99999.16;7397952;19;20112;-76
2023/07/09 07:40:58;;;;;;;1.58;0.60;;;;;;;31.72;64.20;100001.47;7394699;19;20031;-77
2023/07/09 07:43:24;;;;;;;0.98;0.20;;;;;;;27.59;100.00;100035.91;7394809;19;20021;-77
2023/07/09 07:45:50;;;;;;;0.70;0.17;;;;;;;21.97;100.00;100045.50;7392489;19;20014;-76
2023/07/09 07:48:16;;;;;;;0.55;0.35;;;;;;;20.23;100.00;100039.25;7393156;19;20019;-77
2023/07/09 07:50:45;;;;;;;3.83;0.20;;;;;;;19.20;100.00;100061.41;7389929;19;20468;-77
2023/07/09 07:53:13;;;;;;;0.22;0.20;;;;;;;18.92;100.00;100069.41;7389902;19;20454;-77
2023/07/09 07:55:39;;;;;;;0.30;0.22;;;;;;;19.03;100.00;100051.59;7391498;19;20504;-77
2023/07/09 07:58:06;;;;;;;0.75;0.52;;;;;;;18.74;100.00;100081.38;7394438;19;20014;-76
2023/07/09 08:00:32;;;;;;;2.35;0.38;;;;;;;26.85;100.00;100074.00;7393227;19;20018;-77
2023/07/09 08:02:58;;;;;;;1.05;0.38;;;;;;;19.80;100.00;100067.63;7391748;19;20349;-77
2023/07/09 08:05:25;;;;;;;13.23;0.65;;;;;;;19.01;100.00;100100.13;7391790;19;20047;-77
2023/07/09 08:07:51;;;;;;;4.85;0.47;;;;;;;18.66;100.00;100122.75;7392308;19;20344;-77
2023/07/09 08:10:18;;;;;;;5.90;0.52;;;;;;;18.36;100.00;100119.09;7390739;19;20074;-77
2023/07/09 08:12:44;;;;;;;1.38;0.13;;;;;;;18.19;100.00;100124.84;7395138;19;20039;-77
2023/07/09 08:15:10;;;;;;;4.45;0.20;;;;;;;18.11;100.00;100124.63;7391445;19;20469;-76
2023/07/09 08:17:36;;;;;;;0.40;0.13;;;;;;;17.97;100.00;100102.41;7393221;19;20018;-77
2023/07/09 08:20:03;;;;;;;5.38;0.38;;;;;;;17.87;100.00;100104.75;7393163;19;20468;-77
2023/07/09 08:22:29;;;;;;;3.60;0.45;;;;;;;17.92;100.00;100117.28;7390712;19;20029;-77
2023/07/09 08:24:55;;;;;;;3.88;0.28;;;;;;;27.63;100.00;100099.22;7394627;19;20010;-76
2023/07/09 08:27:21;;;;;;;0.10;0.10;;;;;;;22.19;100.00;100115.94;7391249;19;20023;-76
2023/07/09 08:29:47;;;;;;;1.40;0.63;;;;;;;27.54;100.00;100097.00;7391101;19;20474;-77
2023/07/09 08:32:14;;;;;;;1.00;0.30;;;;;;;20.40;100.00;100082.19;7392651;19;20118;-77
2023/07/09 08:34:41;;;;;;;0.10;0.10;;;;;;;18.84;100.00;100076.94;7393297;19;20014;-77
2023/07/09 08:37:08;;;;;;;2.08;0.73;;;;;;;30.58;100.00;100057.63;7392514;19;20011;-77
2023/07/09 08:39:34;;;;;;;5.78;0.73;;;;;;;33.50;86.78;100047.94;7393411;19;20039;-77
2023/07/09 08:42:11;;;;;;;6.07;0.30;;;;;;;34.53;78.16;100048.84;7392206;19;20480;-77
2023/07/09 08:44:44;;;;;;;3.25;0.50;;;;;;;34.98;71.94;100043.28;7389985;19;20024;-77
2023/07/09 08:48:01;;;;;;;5.28;1.17;;;;;;;34.83;74.80;100049.72;7393317;19;20496;-77
2023/07/09 08:50:41;;;;;;;1.25;0.32;;;;;;;37.15;62.04;100048.19;7388550;19;20022;-77
2023/07/09 08:53:40;;;;;;;3.47;0.82;;;;;;;29.56;92.11;100050.81;7388794;19;20024;-77
2023/07/09 08:56:09;;;;;;;3.60;0.80;;;;;;;27.16;100.00;100056.56;7389736;19;20022;-77
2023/07/09 08:58:37;;;;;;;14.68;0.50;;;;;;;33.84;80.61;100035.53;7393387;19;20025;-77
2023/07/09 09:01:10;;;;;;;1.33;0.20;;;;;;;34.96;71.57;100037.38;7390875;19;20030;-77
2023/07/09 09:03:44;;;;;;;2.08;1.20;;;;;;;35.34;67.64;100033.63;7391463;19;20410;-77
2023/07/09 09:06:16;;;;;;;0.20;0.10;;;;;;;35.32;66.48;100042.22;7389005;19;20018;-77
2023/07/09 09:09:10;;;;;;;0.90;0.50;;;;;;;35.53;65.50;100038.97;7391529;19;20354;-77
2023/07/09 09:11:45;;;;;;;0.47;0.38;;;;;;;37.41;58.06;100044.94;7395650;19;20018;-77
2023/07/09 09:14:40;;;;;;;0.65;0.30;;;;;;;37.19;54.46;100033.81;7394817;19;20014;-77
2023/07/09 09:17:16;;;;;;;1.60;0.40;;;;;;;35.19;60.13;100031.41;7389266;19;20998;-77
2023/07/09 09:19:51;;;;;;;2.00;0.43;;;;;;;34.97;61.93;100030.22;7391259;19;20086;-76
2023/07/09 09:22:23;;;;;;;0.52;0.20;;;;;;;34.92;62.16;100016.91;7390609;19;20025;-78
2023/07/09 09:25:12;;;;;;;2.80;0.52;;;;;;;34.85;60.66;100024.53;7391460;19;20358;-78
2023/07/09 09:27:38;;;;;;;0.40;0.20;;;;;;;34.71;60.19;100020.91;7388578;19;20372;-77
2023/07/09 09:30:11;;;;;;;1.20;0.17;;;;;;;34.80;59.93;100022.84;7390914;19;20022;-78
2023/07/09 09:32:43;;;;;;;6.70;0.30;;;;;;;34.87;60.72;100026.81;7389203;19;20030;-78
2023/07/09 09:35:19;;;;;;;0.45;0.10;;;;;;;34.45;59.23;100027.38;7388099;19;20018;-77
2023/07/09 09:37:51;;;;;;;2.05;0.20;;;;;;;34.36;59.13;100026.19;7388814;19;20019;-77
2023/07/09 09:40:23;;;;;;;1.00;0.32;;;;;;;34.52;60.24;100020.56;7391013;19;20015;-77
2023/07/09 09:42:51;;;;;;;0.15;0.08;;;;;;;34.70;61.20;100018.63;7390841;19;20014;-77
2023/07/09 09:45:20;;;;;;;3.83;0.52;;;;;;;34.52;61.03;100014.78;7388608;19;20019;-77
2023/07/09 09:47:48;;;;;;;0.85;0.10;;;;;;;34.80;59.92;100022.09;7389601;19;20029;-77
2023/07/09 09:50:20;;;;;;;0.22;0.00;;;;;;;35.01;55.07;100021.78;7399201;19;20014;-77
2023/07/09 09:52:47;;;;;;;0.98;0.20;;;;;;;35.04;56.67;100020.50;7404528;19;20049;-78
2023/07/09 09:55:24;;;;;;;3.83;0.30;;;;;;;35.20;57.63;100030.00;7400368;19;20015;-77
2023/07/09 09:57:52;;;;;;;3.97;0.13;;;;;;;34.78;57.85;100024.88;7403862;19;20022;-77
2023/07/09 10:00:23;;;;;;;0.20;0.20;;;;;;;34.66;58.08;100024.19;7406406;19;20353;-77
2023/07/09 10:02:49;;;;;;;;;;;;;;;34.62;59.01;100024.00;7405214;19;20018;-77
2023/07/09 10:05:15;;;;;;;5.28;0.30;;;;;;;34.66;56.29;100030.75;7402275;19;19922;-77
2023/07/09 10:07:57;;;;;;;2.58;0.55;;;;;;;37.01;55.77;100033.03;7400747;19;20022;-77
2023/07/09 10:10:30;;;;;;;1.38;0.30;;;;;;;35.61;57.01;100032.81;7406571;19;20022;-77
2023/07/09 10:13:05;;;;;;;0.63;0.25;;;;;;;35.51;55.18;100041.03;7405524;19;20093;-77
2023/07/09 10:15:46;;;;;;;1.00;0.40;;;;;;;35.50;54.84;100033.72;7402101;19;20011;-77
2023/07/09 10:18:43;;;;;;;2.55;0.45;;;;;;;34.71;56.30;100031.72;7400740;19;20438;-77
2023/07/09 10:21:26;;;;;;;1.35;0.47;;;;;;;37.37;54.30;100028.09;7407967;19;20483;-77
2023/07/09 10:24:05;;;;;;;0.50;0.15;;;;;;;36.46;53.58;100029.78;7403864;19;20037;-77
2023/07/09 10:27:06;;;;;;;1.20;0.20;;;;;;;37.31;51.94;100024.91;7402796;19;20019;-77
2023/07/09 10:29:47;;;;;;;4.68;0.17;;;;;;;39.15;45.47;100012.56;7399739;19;20025;-77
2023/07/09 10:32:39;;;;;;;3.45;0.40;;;;;;;35.02;50.09;100023.28;7402360;19;20053;-77
2023/07/09 10:35:14;;;;;;;0.47;0.20;;;;;;;34.89;51.71;100013.16;7402142;19;20018;-77
2023/07/09 10:38:19;;;;;;;4.25;0.57;;;;;;;34.15;55.73;100009.09;7399928;19;20029;-77
2023/07/09 10:40:49;;;;;;;3.85;0.60;;;;;;;34.35;58.12;100010.97;7405471;19;20018;-77
2023/07/09 10:43:18;;;;;;;;;;;;;;;39.36;46.49;100009.69;7402640;19;20011;-77
2023/07/09 10:45:49;;;;;;;0.30;0.00;;;;;;;37.00;48.22;100014.09;7399808;19;19922;-76
2023/07/09 10:48:35;;;;;;;0.55;0.10;;;;;;;36.57;50.65;100013.59;7399615;19;20078;-76
2023/07/09 10:51:03;;;;;;;0.57;0.30;;;;;;;36.91;49.33;100009.34;7407863;19;20118;-76
2023/07/09 10:53:37;;;;;;;0.50;0.10;;;;;;;28.71;80.44;100017.75;7402927;19;20486;-77
2023/07/09 10:56:19;;;;;;;1.15;0.25;;;;;;;26.96;99.42;100024.91;7401008;19;20342;-77
2023/07/09 10:58:57;;;;;;;0.65;0.20;;;;;;;26.79;100.00;100016.31;7402315;19;20039;-77
2023/07/09 11:01:32;;;;;;;0.25;0.20;;;;;;;26.72;100.00;100017.13;7396902;19;20015;-77
2023/07/09 11:04:04;;;;;;;0.20;0.10;;;;;;;26.90;100.00;100015.81;7396270;19;20086;-76
2023/07/09 11:06:38;;;;;;;1.45;0.43;;;;;;;27.07;100.00;100025.78;7394465;19;20473;-76
2023/07/09 11:09:20;;;;;;;0.65;0.35;;;;;;;26.58;100.00;100018.75;7395665;19;20018;-76
2023/07/09 11:11:51;;;;;;;0.95;0.52;;;;;;;26.42;100.00;100019.47;7393983;19;20018;-77
2023/07/09 11:14:26;;;;;;;0.47;0.47;;;;;;;26.59;100.00;100011.72;7397928;19;20015;-77
2023/07/09 11:16:56;;;;;;;3.83;0.25;;;;;;;26.59;100.00;100023.13;7393660;19;20019;-77
2023/07/09 11:19:23;;;;;;;3.17;0.47;;;;;;;26.68;100.00;100025.31;7395333;19;20010;-77
2023/07/09 11:22:10;;;;;;;1.75;0.13;;;;;;;26.58;100.00;100021.59;7395011;19;20652;-77
2023/07/09 11:24:51;;;;;;;1.63;0.28;;;;;;;26.89;100.00;100020.03;7395254;19;20039;-77
2023/07/09 11:27:21;;;;;;;0.80;0.22;;;;;;;26.92;99.23;100016.00;7393477;19;20007;-76
2023/07/09 11:29:55;;;;;;;0.57;0.00;;;;;;;34.29;64.90;100009.88;7396755;19;20014;-77
2023/07/09 11:32:22;;;;;;;5.55;1.67;;;;;;;36.58;53.73;100002.72;7394460;19;20533;-76
2023/07/09 11:34:49;;;;;;;2.30;0.32;;;;;;;37.35;50.47;99995.28;7393243;19;20492;-77
2023/07/09 11:37:16;;;;;;;0.50;0.10;;;;;;;36.80;52.66;100001.56;7394508;19;20469;-77
2023/07/09 11:39:48;;;;;;;2.60;0.25;;;;;;;36.86;49.58;99998.91;7395183;19;20585;-77
2023/07/09 11:42:45;;;;;;;0.10;0.10;;;;;;;37.33;47.23;99983.53;7394679;19;20014;-77